Time;durP1;ratioP1;P1;durP2;ratioP2;P2;SDS_P1;SDS_P2;PMS_P1;PMS_P2;Temp;Humidity;BMP_temperature;BMP_pressure;BME280_temperature;BME280_humidity;BME280_pressure;Samples;Min_cycle;Max_cycle;Signal;HPM_P1;HPM_P2
2021/06/22 00:00:35;;;;;;;16.45;10.07;;;19.80;99.90;;;;;;5053751;28;20078;-77
2021/06/22 00:03:01;;;;;;;11.57;8.88;;;19.80;99.90;;;;;;5034934;28;20487;-78
2021/06/22 00:05:28;;;;;;;12.80;8.80;;;19.70;99.90;;;;;;5033711;28;20022;-77
2021/06/22 00:07:56;;;;;;;14.60;9.98;;;19.70;99.90;;;;;;5038660;28;20013;-78
2021/06/22 00:10:25;;;;;;;12.90;10.57;;;19.70;99.90;;;;;;5045573;28;20028;-77
2021/06/22 00:12:51;;;;;;;13.10;8.30;;;19.60;99.90;;;;;;5035051;28;20028;-77
2021/06/22 00:15:19;;;;;;;10.48;9.18;;;19.60;99.90;;;;;;5047962;28;20033;-77
2021/06/22 00:17:46;;;;;;;10.77;9.18;;;19.40;99.90;;;;;;5054762;28;20053;-78
2021/06/22 00:20:13;;;;;;;15.60;10.30;;;19.40;99.90;;;;;;5053272;28;20021;-79
2021/06/22 00:22:40;;;;;;;15.88;9.80;;;19.30;99.90;;;;;;5054572;28;20501;-80
2021/06/22 00:25:07;;;;;;;15.68;10.88;;;19.30;99.90;;;;;;5052997;28;20116;-79
2021/06/22 00:27:33;;;;;;;15.32;10.30;;;19.10;99.90;;;;;;5038909;28;20083;-79
2021/06/22 00:29:59;;;;;;;12.65;10.20;;;19.10;99.90;;;;;;5033219;28;20025;-79
2021/06/22 00:32:24;;;;;;;19.92;11.40;;;19.10;99.90;;;;;;5033216;28;20044;-79
2021/06/22 00:34:50;;;;;;;15.50;11.40;;;19.10;99.90;;;;;;5034508;28;20025;-79
2021/06/22 00:37:18;;;;;;;17.30;11.63;;;19.10;99.90;;;;;;5033054;28;20108;-80
2021/06/22 00:39:44;;;;;;;15.77;11.60;;;19.10;99.90;;;;;;5034350;28;20033;-80
2021/06/22 00:42:12;;;;;;;27.55;11.05;;;19.10;99.90;;;;;;5034196;28;20103;-80
2021/06/22 00:45:04;;;;;;;13.48;10.23;;;19.10;99.90;;;;;;5033001;28;20049;-80
2021/06/22 00:47:31;;;;;;;12.85;10.10;;;19.10;99.90;;;;;;5027652;28;20033;-79
2021/06/22 00:49:57;;;;;;;13.75;9.43;;;19.10;99.90;;;;;;5032714;28;20022;-79
2021/06/22 00:52:25;;;;;;;11.68;9.82;;;19.10;99.90;;;;;;5034028;28;20033;-79
2021/06/22 00:54:51;;;;;;;13.15;8.82;;;19.10;99.90;;;;;;5032853;28;20104;-79
2021/06/22 00:57:19;;;;;;;15.50;10.00;;;19.10;99.90;;;;;;5032694;28;20036;-79
2021/06/22 00:59:46;;;;;;;13.02;9.63;;;19.00;99.90;;;;;;5034073;28;20112;-79
2021/06/22 01:02:11;;;;;;;14.38;9.95;;;19.00;99.90;;;;;;5033781;28;20033;-79
2021/06/22 01:04:38;;;;;;;17.17;10.10;;;18.90;99.90;;;;;;5053888;28;20023;-80
2021/06/22 01:07:05;;;;;;;13.10;10.10;;;18.80;99.90;;;;;;5052503;28;20056;-80
2021/06/22 01:09:32;;;;;;;15.55;10.50;;;18.80;99.90;;;;;;5052441;28;20518;-79
2021/06/22 01:11:59;;;;;;;12.80;9.63;;;18.70;99.90;;;;;;5053698;28;20021;-79
2021/06/22 01:14:26;;;;;;;14.02;10.38;;;18.60;99.90;;;;;;5053619;28;20033;-79
2021/06/22 01:16:53;;;;;;;11.38;9.95;;;18.60;99.90;;;;;;5052405;28;20021;-80
2021/06/22 01:19:19;;;;;;;14.02;11.27;;;18.60;99.90;;;;;;5052192;28;20025;-80
2021/06/22 01:21:45;;;;;;;19.33;11.45;;;18.60;99.90;;;;;;5052226;28;20387;-80
2021/06/22 01:24:14;;;;;;;16.33;12.02;;;18.60;99.90;;;;;;5052071;28;20536;-80
2021/06/22 01:26:52;;;;;;;15.60;11.43;;;18.60;99.90;;;;;;5052203;28;20537;-80
2021/06/22 01:29:18;;;;;;;17.83;11.60;;;18.60;99.90;;;;;;5052035;28;20152;-79
2021/06/22 01:31:45;;;;;;;17.48;11.75;;;18.70;99.90;;;;;;5052106;28;20021;-80
2021/06/22 01:34:11;;;;;;;16.08;11.32;;;18.70;99.90;;;;;;5053168;28;20175;-80
2021/06/22 01:36:38;;;;;;;16.15;11.02;;;18.70;99.90;;;;;;5053355;28;20013;-79
2021/06/22 01:39:06;;;;;;;14.55;9.93;;;18.60;99.90;;;;;;5051892;28;20025;-79
2021/06/22 01:41:32;;;;;;;16.35;10.13;;;18.60;99.90;;;;;;5051891;28;20025;-79
2021/06/22 01:43:58;;;;;;;15.38;10.75;;;18.60;99.90;;;;;;5051616;28;20072;-79
2021/06/22 01:46:24;;;;;;;17.73;12.10;;;18.40;99.90;;;;;;5053105;28;20029;-79
2021/06/22 01:48:50;;;;;;;16.73;10.98;;;18.40;99.90;;;;;;5053143;28;20029;-79
2021/06/22 01:51:16;;;;;;;18.13;12.50;;;18.30;99.90;;;;;;5052463;28;20108;-79
2021/06/22 01:53:49;;;;;;;15.52;11.77;;;18.20;99.90;;;;;;5053082;28;20390;-79
2021/06/22 01:56:15;;;;;;;13.02;11.73;;;18.20;99.90;;;;;;5052881;28;20025;-79
2021/06/22 01:58:40;;;;;;;18.88;12.02;;;18.20;99.90;;;;;;5051763;28;20079;-80
2021/06/22 02:01:06;;;;;;;19.20;12.82;;;18.30;99.90;;;;;;5052885;28;20067;-80
2021/06/22 02:03:32;;;;;;;17.73;12.38;;;18.30;99.90;;;;;;5040392;28;20064;-80
2021/06/22 02:05:57;;;;;;;12.05;10.85;;;18.30;99.90;;;;;;5032945;28;20018;-80
2021/06/22 02:08:23;;;;;;;15.85;10.73;;;18.20;99.90;;;;;;5031839;28;20021;-80
2021/06/22 02:10:49;;;;;;;13.65;9.82;;;18.10;99.90;;;;;;5032879;28;20479;-79
2021/06/22 02:13:15;;;;;;;15.68;11.32;;;18.20;99.90;;;;;;5031555;28;20044;-79
2021/06/22 02:15:41;;;;;;;15.48;12.23;;;18.10;99.90;;;;;;5031572;28;20404;-79
2021/06/22 02:18:08;;;;;;;15.48;12.00;;;18.10;99.90;;;;;;5041906;28;20017;-80
2021/06/22 02:20:35;;;;;;;13.73;11.57;;;18.20;99.90;;;;;;5052370;28;20056;-79
2021/06/22 02:23:01;;;;;;;17.98;11.45;;;18.20;99.90;;;;;;5051349;28;20048;-80
2021/06/22 02:25:27;;;;;;;18.90;12.80;;;18.20;99.90;;;;;;5041116;28;20018;-79
2021/06/22 02:28:13;;;;;;;18.55;12.60;;;18.30;99.90;;;;;;5032781;28;20418;-80
2021/06/22 02:30:40;;;;;;;16.10;11.77;;;18.30;99.90;;;;;;5032775;28;20018;-79
2021/06/22 02:33:07;;;;;;;19.23;13.00;;;18.30;99.90;;;;;;5032665;28;20030;-80
2021/06/22 02:35:32;;;;;;;15.20;11.27;;;18.30;99.90;;;;;;5041796;28;20026;-81
2021/06/22 02:37:58;;;;;;;17.38;12.27;;;18.30;99.90;;;;;;5052168;28;20032;-80
2021/06/22 02:40:25;;;;;;;19.45;12.88;;;18.40;99.90;;;;;;5051187;28;20124;-79
2021/06/22 02:42:52;;;;;;;12.98;11.15;;;18.40;99.90;;;;;;5050248;28;20565;-79
2021/06/22 02:45:17;;;;;;;16.40;11.85;;;18.30;99.90;;;;;;5051289;28;20041;-80
2021/06/22 02:47:45;;;;;;;13.88;10.50;;;18.30;99.90;;;;;;5050291;28;20017;-81
2021/06/22 02:50:12;;;;;;;12.45;10.15;;;18.30;99.90;;;;;;5051529;28;20024;-80
2021/06/22 02:52:38;;;;;;;16.17;11.20;;;18.30;99.90;;;;;;5050015;28;20055;-80
2021/06/22 02:55:06;;;;;;;15.68;12.25;;;18.40;99.90;;;;;;5051348;28;20031;-80
2021/06/22 02:57:31;;;;;;;22.23;11.85;;;18.40;99.90;;;;;;5051190;28;20033;-80
2021/06/22 02:59:57;;;;;;;22.15;12.55;;;18.40;99.90;;;;;;5050231;28;20025;-80
2021/06/22 03:02:23;;;;;;;16.92;12.52;;;18.50;99.90;;;;;;5050072;28;20375;-81
2021/06/22 03:04:48;;;;;;;16.27;12.43;;;18.50;99.90;;;;;;5053504;28;20098;-79
2021/06/22 03:07:14;;;;;;;17.20;13.10;;;18.50;99.90;;;;;;5055095;28;20025;-80
2021/06/22 03:09:41;;;;;;;18.02;12.55;;;18.60;99.90;;;;;;5054860;28;20367;-81
2021/06/22 03:12:07;;;;;;;17.48;12.75;;;18.60;99.90;;;;;;5054991;28;20029;-80
2021/06/22 03:14:33;;;;;;;14.52;11.23;;;18.70;99.90;;;;;;5048119;28;20394;-79
2021/06/22 03:16:59;;;;;;;19.02;12.38;;;18.70;99.90;;;;;;5054873;28;20025;-80
2021/06/22 03:19:24;;;;;;;18.60;13.70;;;18.70;99.90;;;;;;5053551;28;20036;-81
2021/06/22 03:21:50;;;;;;;20.10;12.93;;;18.70;99.90;;;;;;5053161;28;20025;-81
2021/06/22 03:24:19;;;;;;;18.67;12.75;;;18.80;99.90;;;;;;5054668;28;20025;-80
2021/06/22 03:26:45;;;;;;;18.88;12.25;;;19.00;99.90;;;;;;5053567;28;20025;-80
2021/06/22 03:29:11;;;;;;;17.05;11.93;;;19.10;99.90;;;;;;5054203;28;20025;-80
2021/06/22 03:31:37;;;;;;;18.08;12.80;;;19.30;99.90;;;;;;5053476;28;20013;-80
2021/06/22 03:34:04;;;;;;;16.25;12.73;;;19.40;99.90;;;;;;5053101;28;20547;-80
2021/06/22 03:36:30;;;;;;;16.77;13.15;;;19.50;99.90;;;;;;5053028;28;20060;-81
2021/06/22 03:38:56;;;;;;;17.38;12.27;;;19.70;99.90;;;;;;5052818;28;20114;-80
2021/06/22 03:41:22;;;;;;;16.98;12.10;;;19.90;99.90;;;;;;5050717;28;20083;-80
2021/06/22 03:43:47;;;;;;;16.08;11.15;;;20.00;99.90;;;;;;5047484;28;20546;-80
2021/06/22 03:46:18;;;;;;;23.65;13.05;;;20.20;99.90;;;;;;5034149;28;20037;-79
2021/06/22 03:48:44;;;;;;;20.23;11.85;;;20.30;99.90;;;;;;5033148;28;20025;-80
2021/06/22 03:51:10;;;;;;;22.17;12.95;;;20.30;99.90;;;;;;5034317;28;20040;-80
2021/06/22 03:53:37;;;;;;;14.52;11.82;;;20.40;99.90;;;;;;5034397;28;20025;-80
2021/06/22 03:56:06;;;;;;;13.90;12.30;;;20.60;99.90;;;;;;5032823;28;20025;-80
2021/06/22 03:58:33;;;;;;;18.55;12.75;;;20.70;99.90;;;;;;5032889;28;20009;-80
2021/06/22 04:00:59;;;;;;;17.98;12.13;;;20.90;99.90;;;;;;5032911;28;20033;-81
2021/06/22 04:03:25;;;;;;;14.90;11.80;;;21.10;99.90;;;;;;5042549;28;20062;-81
2021/06/22 04:05:50;;;;;;;13.65;11.23;;;21.20;99.90;;;;;;5052559;28;20112;-79
2021/06/22 04:08:16;;;;;;;16.70;10.80;;;21.40;99.90;;;;;;5053972;28;20108;-79
2021/06/22 04:10:42;;;;;;;16.50;11.82;;;21.50;99.90;;;;;;5052415;28;20449;-79
2021/06/22 04:13:07;;;;;;;17.05;11.80;;;21.70;99.90;;;;;;5052378;28;20025;-81
2021/06/22 04:15:34;;;;;;;19.55;12.43;;;21.90;99.90;;;;;;5053158;28;20021;-80
2021/06/22 04:18:01;;;;;;;18.08;11.20;;;22.00;99.90;;;;;;5051900;28;20045;-80
2021/06/22 04:20:27;;;;;;;14.15;10.52;;;22.10;99.90;;;;;;5051808;28;20040;-81
2021/06/22 04:22:52;;;;;;;17.55;11.38;;;22.20;99.90;;;;;;5053687;28;20040;-81
2021/06/22 04:25:18;;;;;;;16.50;11.85;;;22.30;99.90;;;;;;5053554;28;20070;-81
2021/06/22 04:27:44;;;;;;;19.60;11.13;;;22.50;99.90;;;;;;5051564;28;20025;-80
2021/06/22 04:30:10;;;;;;;19.90;11.38;;;22.60;99.90;;;;;;5051919;28;20032;-81
2021/06/22 04:32:35;;;;;;;19.33;11.23;;;22.80;99.90;;;;;;5052204;28;20040;-80
2021/06/22 04:35:01;;;;;;;18.67;11.27;;;22.90;99.90;;;;;;5048329;28;20033;-80
2021/06/22 04:37:27;;;;;;;19.20;10.82;;;23.00;99.90;;;;;;5032194;28;20048;-81
2021/06/22 04:39:53;;;;;;;20.25;11.68;;;23.10;99.90;;;;;;5033385;28;20036;-80
2021/06/22 04:42:19;;;;;;;15.25;11.18;;;23.20;99.90;;;;;;5033329;28;20527;-81
2021/06/22 04:44:45;;;;;;;19.05;10.82;;;23.20;99.90;;;;;;5045096;28;20029;-81
2021/06/22 04:47:10;;;;;;;17.25;10.45;;;23.30;99.50;;;;;;5053137;28;20503;-80
2021/06/22 04:49:36;;;;;;;17.45;10.35;;;23.30;99.50;;;;;;5051877;28;20028;-81
2021/06/22 04:52:02;;;;;;;17.73;10.25;;;23.30;96.50;;;;;;5051578;28;20029;-81
2021/06/22 04:54:27;;;;;;;19.10;10.45;;;23.50;97.00;;;;;;5038970;28;20030;-80
2021/06/22 04:56:53;;;;;;;15.63;10.73;;;23.60;95.70;;;;;;5031930;28;20057;-81
2021/06/22 04:59:19;;;;;;;17.33;11.07;;;23.70;95.00;;;;;;5038521;28;20033;-81
2021/06/22 05:01:45;;;;;;;23.48;11.25;;;23.70;91.80;;;;;;5042029;28;20024;-80
2021/06/22 05:04:12;;;;;;;16.05;9.60;;;23.80;93.10;;;;;;5039570;28;20033;-79
2021/06/22 05:06:38;;;;;;;15.75;9.95;;;23.90;93.80;;;;;;5041058;28;20028;-80
2021/06/22 05:09:04;;;;;;;17.13;10.70;;;24.10;94.60;;;;;;5052722;28;20033;-80
2021/06/22 05:11:30;;;;;;;18.20;10.57;;;24.20;94.40;;;;;;5052948;28;20017;-80
2021/06/22 05:13:56;;;;;;;14.30;9.27;;;24.30;94.70;;;;;;5052556;28;20029;-81
2021/06/22 05:16:22;;;;;;;11.10;9.65;;;24.40;93.60;;;;;;5052231;28;20029;-80
2021/06/22 05:18:48;;;;;;;18.65;9.98;;;24.50;93.40;;;;;;5052570;28;20032;-80
2021/06/22 05:21:14;;;;;;;16.73;9.80;;;24.60;93.60;;;;;;5044898;28;20017;-80
2021/06/22 05:23:40;;;;;;;12.63;9.55;;;24.70;93.70;;;;;;5046232;28;20037;-80
2021/06/22 05:26:06;;;;;;;18.60;9.95;;;24.80;94.30;;;;;;5043315;28;20032;-81
2021/06/22 05:28:31;;;;;;;15.43;10.40;;;24.90;93.30;;;;;;5041677;28;20029;-81
2021/06/22 05:30:57;;;;;;;16.08;9.05;;;24.90;91.90;;;;;;5040657;28;20363;-80
2021/06/22 05:33:23;;;;;;;15.13;10.05;;;25.00;89.40;;;;;;5042280;28;20017;-81
2021/06/22 05:35:49;;;;;;;15.25;9.40;;;25.10;89.30;;;;;;5047666;28;20539;-81
2021/06/22 05:38:15;;;;;;;15.10;9.70;;;25.20;84.90;;;;;;5050199;28;20025;-84
2021/06/22 05:40:41;;;;;;;14.20;8.85;;;25.20;85.30;;;;;;5052187;28;20403;-81
2021/06/22 05:43:07;;;;;;;20.77;9.48;;;25.30;85.00;;;;;;5052600;28;20044;-82
2021/06/22 05:45:32;;;;;;;14.02;9.80;;;25.40;85.00;;;;;;5045835;28;20025;-82
2021/06/22 05:47:58;;;;;;;21.92;11.18;;;25.60;84.70;;;;;;5045750;28;20021;-83
2021/06/22 05:50:24;;;;;;;12.82;9.10;;;25.60;83.60;;;;;;5049376;28;20016;-83
2021/06/22 05:52:51;;;;;;;11.05;9.00;;;25.80;83.90;;;;;;5041530;28;20389;-82
2021/06/22 05:55:17;;;;;;;14.25;10.00;;;25.90;83.20;;;;;;5044607;28;20267;-82
2021/06/22 05:57:48;;;;;;;12.63;9.18;;;25.90;82.40;;;;;;5047953;28;20032;-82
2021/06/22 06:00:16;;;;;;;13.07;9.43;;;26.10;83.90;;;;;;5050334;28;20475;-82
2021/06/22 06:02:41;;;;;;;16.67;9.60;;;26.20;80.80;;;;;;5051141;28;20123;-82
2021/06/22 06:05:09;;;;;;;15.85;8.57;;;26.30;80.80;;;;;;5032263;28;20101;-82
2021/06/22 06:07:35;;;;;;;17.27;9.13;;;26.50;79.90;;;;;;5030624;28;20010;-82
2021/06/22 06:10:02;;;;;;;17.88;9.50;;;26.70;79.70;;;;;;5042739;28;20033;-82
2021/06/22 06:12:28;;;;;;;14.02;8.80;;;26.80;77.50;;;;;;5051507;28;20529;-84
2021/06/22 06:14:54;;;;;;;24.10;9.43;;;26.90;76.10;;;;;;5051637;28;20021;-82
2021/06/22 06:17:20;;;;;;;20.83;8.98;;;27.00;76.30;;;;;;5050982;28;20024;-83
2021/06/22 06:19:46;;;;;;;17.88;9.00;;;27.10;74.70;;;;;;5035432;28;20037;-82
2021/06/22 06:22:11;;;;;;;22.20;9.57;;;27.20;73.00;;;;;;5028859;28;20402;-83
2021/06/22 06:24:37;;;;;;;16.83;9.07;;;27.30;72.70;;;;;;5029835;28;20033;-83
2021/06/22 06:27:11;;;;;;;16.08;9.15;;;27.40;71.70;;;;;;5042999;28;20029;-83
2021/06/22 06:30:01;;;;;;;12.80;8.70;;;27.50;71.50;;;;;;5050100;28;20021;-82
2021/06/22 06:32:23;;;;;;;14.15;8.85;;;27.50;70.80;;;;;;5051022;28;20040;-83
2021/06/22 06:34:49;;;;;;;13.25;8.15;;;27.70;69.60;;;;;;5044670;28;20036;-83
2021/06/22 06:37:14;;;;;;;11.80;7.70;;;27.70;67.00;;;;;;5068520;28;20116;-83
2021/06/22 06:39:40;;;;;;;8.48;7.45;;;27.80;66.60;;;;;;5065785;28;20029;-83
2021/06/22 06:42:06;;;;;;;17.23;7.90;;;27.90;66.40;;;;;;5041445;28;20108;-82
2021/06/22 06:44:32;;;;;;;15.57;8.45;;;28.00;65.60;;;;;;5035520;28;20033;-83
2021/06/22 06:46:58;;;;;;;8.65;7.72;;;28.00;65.60;;;;;;5055716;28;20036;-83
2021/06/22 06:49:23;;;;;;;11.65;7.80;;;28.10;65.20;;;;;;5054197;28;20527;-83
2021/06/22 06:51:49;;;;;;;15.50;8.57;;;28.30;64.10;;;;;;5054591;28;20045;-83
2021/06/22 06:54:15;;;;;;;11.88;7.50;;;28.40;63.80;;;;;;5055076;28;20071;-83
2021/06/22 06:56:40;;;;;;;12.93;7.72;;;28.60;64.00;;;;;;5055430;28;20576;-83
2021/06/22 06:59:06;;;;;;;9.70;7.00;;;28.70;63.50;;;;;;5055086;28;20482;-83
2021/06/22 07:01:32;;;;;;;11.90;8.27;;;28.70;63.30;;;;;;5056104;28;20036;-83
2021/06/22 07:03:59;;;;;;;16.65;7.65;;;28.80;64.30;;;;;;5055749;28;20044;-82
2021/06/22 07:06:24;;;;;;;11.48;6.70;;;29.00;64.60;;;;;;5050014;28;20025;-83
2021/06/22 07:08:50;;;;;;;14.77;7.93;;;29.10;62.30;;;;;;5055383;28;20084;-83
2021/06/22 07:11:19;;;;;;;14.95;7.82;;;29.20;60.50;;;;;;5053395;28;20040;-83
2021/06/22 07:13:44;;;;;;;17.15;7.95;;;29.10;59.80;;;;;;5056462;28;20390;-83
2021/06/22 07:16:10;;;;;;;11.35;6.03;;;29.30;60.70;;;;;;5054860;28;20017;-82
2021/06/22 07:18:36;;;;;;;6.65;5.55;;;29.50;58.10;;;;;;5054874;28;20053;-83
2021/06/22 07:21:02;;;;;;;6.40;5.85;;;29.70;55.90;;;;;;5037119;28;20033;-83
2021/06/22 07:23:27;;;;;;;9.23;5.18;;;29.80;54.40;;;;;;5033414;28;20030;-83
2021/06/22 07:25:53;;;;;;;12.48;5.80;;;29.90;54.30;;;;;;5033378;28;20120;-83
2021/06/22 07:28:20;;;;;;;8.25;5.53;;;30.00;53.80;;;;;;5034634;28;20156;-83
2021/06/22 07:30:45;;;;;;;9.48;5.43;;;30.10;53.40;;;;;;5033383;28;20017;-83
2021/06/22 07:33:11;;;;;;;12.10;5.65;;;30.20;53.70;;;;;;5035308;28;20018;-83
2021/06/22 07:35:37;;;;;;;16.38;6.38;;;30.10;53.00;;;;;;5040707;28;20040;-83
2021/06/22 07:38:04;;;;;;;15.30;5.55;;;30.30;53.10;;;;;;5070555;28;20116;-83
2021/06/22 07:40:30;;;;;;;8.98;5.03;;;30.40;52.10;;;;;;5054304;28;20541;-83
2021/06/22 07:42:57;;;;;;;10.70;5.20;;;30.50;50.10;;;;;;5055234;28;20196;-83
2021/06/22 07:45:23;;;;;;;11.05;5.15;;;30.50;50.90;;;;;;5056214;28;20025;-83
2021/06/22 07:47:49;;;;;;;9.05;5.13;;;30.40;50.50;;;;;;5055386;28;20083;-83
2021/06/22 07:50:15;;;;;;;8.73;5.90;;;30.40;50.70;;;;;;5053236;28;20031;-83
2021/06/22 07:52:42;;;;;;;13.57;5.22;;;30.60;50.80;;;;;;5055284;28;20017;-83
2021/06/22 07:55:15;;;;;;;9.82;5.38;;;30.70;50.00;;;;;;5053681;28;20033;-83
2021/06/22 07:57:49;;;;;;;9.85;5.95;;;31.00;49.70;;;;;;5054319;28;20021;-83
2021/06/22 08:00:37;;;;;;;14.60;6.38;;;31.20;49.40;;;;;;5056409;28;20063;-83
2021/06/22 08:03:04;;;;;;;17.65;6.63;;;31.30;48.70;;;;;;5054971;28;20029;-83
2021/06/22 08:05:29;;;;;;;14.70;7.00;;;31.60;49.00;;;;;;5053468;28;20043;-83
2021/06/22 08:07:55;;;;;;;16.85;6.60;;;31.80;48.20;;;;;;5054976;28;20406;-83
2021/06/22 08:10:20;;;;;;;14.40;6.43;;;32.00;48.40;;;;;;5040705;28;20029;-83
2021/06/22 08:12:46;;;;;;;9.98;5.57;;;31.90;46.60;;;;;;5034296;28;20113;-83
2021/06/22 08:15:12;;;;;;;15.65;5.57;;;31.80;47.00;;;;;;5051218;28;20124;-83
2021/06/22 08:17:38;;;;;;;9.63;6.53;;;31.80;46.50;;;;;;5053834;28;20600;-82
2021/06/22 08:20:05;;;;;;;7.82;4.70;;;31.60;47.00;;;;;;5052921;28;20104;-83
2021/06/22 08:22:30;;;;;;;10.18;4.45;;;31.50;44.20;;;;;;5054539;28;20124;-83
2021/06/22 08:24:56;;;;;;;9.25;5.05;;;31.40;42.90;;;;;;5053665;28;20087;-83
2021/06/22 08:27:22;;;;;;;8.38;6.68;;;31.30;44.60;;;;;;5054688;28;20033;-83
2021/06/22 08:29:47;;;;;;;17.40;8.27;;;31.10;48.50;;;;;;5054768;28;20067;-82
2021/06/22 08:32:13;;;;;;;12.27;8.13;;;31.00;51.90;;;;;;5053611;28;20466;-82
2021/06/22 08:34:39;;;;;;;12.55;7.97;;;30.90;52.90;;;;;;5054858;28;20029;-82
2021/06/22 08:37:04;;;;;;;11.38;7.93;;;30.70;53.90;;;;;;5033358;28;20026;-82
2021/06/22 08:39:30;;;;;;;9.85;7.30;;;30.40;54.40;;;;;;5033185;28;20368;-82
2021/06/22 08:41:58;;;;;;;10.07;7.43;;;30.00;55.20;;;;;;5049013;28;20049;-82
2021/06/22 08:44:24;;;;;;;7.47;6.03;;;29.60;55.10;;;;;;5052002;28;20389;-81
2021/06/22 08:46:50;;;;;;;14.30;6.50;;;29.40;56.00;;;;;;5053554;28;20021;-82
2021/06/22 09:07:51;;;;;;;18.35;15.48;;;26.10;93.10;;;;;;5116670;27;20470;-78
2021/06/22 09:10:42;;;;;;;19.17;15.60;;;25.00;99.90;;;;;;5110476;28;20047;-78
2021/06/22 09:13:13;;;;;;;17.57;15.70;;;24.90;99.90;;;;;;5106134;28;20044;-78
2021/06/22 09:15:42;;;;;;;17.67;15.80;;;25.00;99.90;;;;;;5110914;28;20111;-78
2021/06/22 09:18:37;;;;;;;16.80;15.00;;;25.10;99.90;;;;;;5108200;28;20035;-79
2021/06/22 09:21:04;;;;;;;22.95;15.10;;;25.30;99.90;;;;;;5108439;28;20090;-78
2021/06/22 09:23:33;;;;;;;20.80;15.70;;;25.50;99.90;;;;;;5109312;28;20027;-79
2021/06/22 09:26:00;;;;;;;22.58;14.90;;;25.60;99.90;;;;;;5109351;28;20035;-78
2021/06/22 09:28:31;;;;;;;20.58;17.30;;;25.80;99.90;;;;;;5109032;28;20024;-78
2021/06/22 09:30:58;;;;;;;19.17;15.30;;;25.90;99.90;;;;;;5108569;28;20028;-80
2021/06/22 09:33:31;;;;;;;22.38;16.73;;;26.00;99.90;;;;;;5108800;28;20111;-80
2021/06/22 09:36:10;;;;;;;24.40;17.42;;;26.10;99.90;;;;;;5108954;28;20081;-80
2021/06/22 09:38:44;;;;;;;28.42;18.60;;;26.20;99.90;;;;;;5109127;28;20012;-81
2021/06/22 09:41:26;;;;;;;20.00;17.67;;;26.40;99.90;;;;;;5088871;28;20481;-81
2021/06/22 09:44:15;;;;;;;21.80;16.67;;;26.50;99.90;;;;;;5089366;28;20048;-80
2021/06/22 09:46:40;;;;;;;20.90;17.00;;;26.70;93.00;;;;;;5088699;28;20472;-81
2021/06/22 09:49:13;;;;;;;19.40;15.60;;;26.70;93.50;;;;;;5088069;28;20017;-80
2021/06/22 09:51:51;;;;;;;25.63;17.25;;;26.40;91.00;;;;;;5099869;28;20480;-80
2021/06/22 09:54:20;;;;;;;19.35;16.33;;;26.30;99.90;;;;;;5111367;28;20023;-80
2021/06/22 09:56:54;;;;;;;21.85;16.80;;;26.30;99.90;;;;;;5109543;28;20043;-81
2021/06/22 09:59:20;;;;;;;29.67;18.27;;;26.50;95.60;;;;;;5107475;28;20024;-81
2021/06/22 10:01:46;;;;;;;25.27;19.30;;;26.60;95.00;;;;;;5107149;28;20028;-81
2021/06/22 10:04:23;;;;;;;23.45;18.00;;;26.80;99.40;;;;;;5106989;28;20493;-81
2021/06/22 10:06:59;;;;;;;22.50;18.98;;;27.00;95.00;;;;;;5105525;28;20043;-81
2021/06/22 10:09:28;;;;;;;25.00;18.80;;;27.10;88.50;;;;;;5095522;28;20031;-81
2021/06/22 10:12:03;;;;;;;25.17;18.67;;;27.20;90.80;;;;;;5095536;28;20020;-81
2021/06/22 10:14:38;;;;;;;24.58;17.25;;;27.30;91.00;;;;;;5095374;28;20060;-81
2021/06/22 10:17:06;;;;;;;20.77;15.40;;;27.40;80.80;;;;;;5094628;28;20123;-81
2021/06/22 10:19:32;;;;;;;21.20;15.88;;;27.30;75.30;;;;;;5094478;28;20028;-81
2021/06/22 10:21:59;;;;;;;22.83;16.13;;;27.30;76.30;;;;;;5095157;28;20077;-80
2021/06/22 10:24:26;;;;;;;26.45;18.00;;;27.10;72.70;;;;;;5093333;28;20058;-81
2021/06/22 10:26:54;;;;;;;21.67;17.02;;;27.00;75.30;;;;;;5093033;28;20028;-80
2021/06/22 10:29:21;;;;;;;30.77;17.20;;;26.90;72.00;;;;;;5095552;28;20123;-81
2021/06/22 10:31:48;;;;;;;28.10;17.77;;;27.00;72.40;;;;;;5094274;28;20016;-80
2021/06/22 10:34:15;;;;;;;22.92;17.80;;;27.10;76.20;;;;;;5093639;28;20027;-80
2021/06/22 10:36:52;;;;;;;20.65;15.98;;;27.20;79.90;;;;;;5079367;28;20063;-80
2021/06/22 10:39:47;;;;;;;22.42;17.25;;;27.40;74.60;;;;;;5076305;28;20080;-80
2021/06/22 10:42:14;;;;;;;23.02;16.60;;;27.60;74.30;;;;;;5095337;28;20027;-80
2021/06/22 10:44:44;;;;;;;21.98;15.98;;;27.70;74.80;;;;;;5096815;28;20039;-80
2021/06/22 10:47:35;;;;;;;18.42;16.60;;;27.80;70.90;;;;;;5092587;28;20024;-81
2021/06/22 10:50:24;;;;;;;19.10;15.40;;;27.90;70.20;;;;;;5073801;28;20021;-81
2021/06/22 10:52:50;;;;;;;19.95;15.77;;;27.90;66.20;;;;;;5073974;28;20036;-81
2021/06/22 10:55:28;;;;;;;24.30;16.10;;;28.00;71.40;;;;;;5084998;28;20024;-81
2021/06/22 10:57:56;;;;;;;20.35;15.55;;;27.90;71.60;;;;;;5095000;28;20030;-81
2021/06/22 11:00:29;;;;;;;18.52;15.48;;;27.90;71.70;;;;;;5095245;28;20023;-81
2021/06/22 11:03:18;;;;;;;20.23;15.32;;;28.00;73.40;;;;;;5094900;28;20503;-81
2021/06/22 11:05:46;;;;;;;27.10;14.95;;;28.00;68.90;;;;;;5094210;28;20086;-81
2021/06/22 11:08:14;;;;;;;18.88;14.05;;;27.90;63.70;;;;;;5094716;28;20028;-81
2021/06/22 11:10:56;;;;;;;16.35;13.40;;;28.00;66.30;;;;;;5093552;28;20028;-81
2021/06/22 11:13:33;;;;;;;20.92;14.70;;;28.10;67.90;;;;;;5092311;28;20020;-81
2021/06/22 11:16:05;;;;;;;16.67;14.45;;;28.00;66.60;;;;;;5094288;28;20035;-81
2021/06/22 11:18:55;;;;;;;18.38;15.57;;;28.20;69.00;;;;;;5094046;28;20027;-81
2021/06/22 11:21:28;;;;;;;19.98;15.35;;;28.30;66.80;;;;;;5094088;28;20032;-81
2021/06/22 11:24:04;;;;;;;20.35;14.93;;;28.50;67.30;;;;;;5092358;28;20481;-81
2021/06/22 11:26:47;;;;;;;14.25;12.73;;;28.60;70.20;;;;;;5094342;28;20028;-81
2021/06/22 11:29:20;;;;;;;17.33;11.88;;;28.70;63.20;;;;;;5092412;28;20020;-81
2021/06/22 11:31:53;;;;;;;17.50;12.18;;;28.90;59.50;;;;;;5094203;28;20080;-81
2021/06/22 11:34:20;;;;;;;14.82;12.00;;;28.90;56.60;;;;;;5093206;28;20027;-81
2021/06/22 11:36:47;;;;;;;15.00;11.55;;;29.20;58.70;;;;;;5084161;28;20040;-82
2021/06/22 11:39:26;;;;;;;19.20;12.10;;;29.40;59.00;;;;;;5093099;28;20021;-82
2021/06/22 11:42:07;;;;;;;17.65;12.48;;;29.60;57.90;;;;;;5092501;28;20118;-82
2021/06/22 11:44:35;;;;;;;15.15;13.18;;;29.70;57.30;;;;;;5093037;28;20081;-82
2021/06/22 11:47:02;;;;;;;13.73;11.15;;;29.80;58.00;;;;;;5093725;28;20051;-82
2021/06/22 11:49:44;;;;;;;17.58;12.88;;;29.90;55.70;;;;;;5091979;28;20024;-82
2021/06/22 11:52:12;;;;;;;14.73;12.93;;;30.00;55.50;;;;;;5094603;28;20107;-81
2021/06/22 11:54:47;;;;;;;17.23;12.63;;;30.10;55.10;;;;;;5093740;28;20064;-82
2021/06/22 11:57:20;;;;;;;15.73;12.07;;;30.10;54.20;;;;;;5092326;28;20089;-80
2021/06/22 11:59:46;;;;;;;14.25;11.93;;;30.30;54.80;;;;;;5093791;28;20020;-80
2021/06/22 12:02:14;;;;;;;12.38;11.05;;;30.50;55.70;;;;;;5092497;28;20188;-80
2021/06/22 12:04:40;;;;;;;14.18;11.20;;;30.60;53.90;;;;;;5093662;28;20073;-80
2021/06/22 12:07:08;;;;;;;13.35;11.95;;;30.70;53.10;;;;;;5088613;28;20021;-80
2021/06/22 12:09:35;;;;;;;17.80;12.52;;;30.80;53.20;;;;;;5074417;28;20016;-80
2021/06/22 12:12:02;;;;;;;12.15;11.00;;;30.80;52.80;;;;;;5068225;28;20036;-80
2021/06/22 12:14:28;;;;;;;16.67;11.50;;;30.70;52.80;;;;;;5093360;28;20012;-80
2021/06/22 12:16:54;;;;;;;12.38;11.07;;;30.80;53.00;;;;;;5092279;28;20047;-79
2021/06/22 12:19:21;;;;;;;16.15;11.63;;;30.90;52.20;;;;;;5093452;28;20052;-80
2021/06/22 12:21:53;;;;;;;17.65;10.35;;;30.90;53.80;;;;;;5093118;28;20024;-80
2021/06/22 12:24:21;;;;;;;12.20;10.93;;;30.90;52.30;;;;;;5092088;28;20020;-80
2021/06/22 12:26:52;;;;;;;16.30;11.73;;;30.80;53.00;;;;;;5093656;28;20046;-80
2021/06/22 12:29:27;;;;;;;15.98;11.93;;;30.80;52.70;;;;;;5093372;28;20069;-80
2021/06/22 12:31:55;;;;;;;16.55;11.90;;;30.90;52.90;;;;;;5092817;28;20028;-81
2021/06/22 12:34:25;;;;;;;16.10;11.30;;;31.00;53.10;;;;;;5093244;28;20385;-80
2021/06/22 12:36:52;;;;;;;12.93;11.23;;;30.90;52.20;;;;;;5091243;28;20039;-80
2021/06/22 12:39:18;;;;;;;16.48;11.68;;;30.90;52.40;;;;;;5091755;28;20028;-80
2021/06/22 12:41:45;;;;;;;17.50;11.50;;;31.00;52.50;;;;;;5089806;28;20032;-80
2021/06/22 12:44:11;;;;;;;14.98;11.32;;;31.10;52.40;;;;;;5090599;28;20473;-80
2021/06/22 12:46:42;;;;;;;13.38;11.95;;;31.30;53.30;;;;;;5082862;28;20073;-80
2021/06/22 12:49:14;;;;;;;14.05;10.80;;;31.50;51.50;;;;;;5081185;28;20237;-80
2021/06/22 12:51:43;;;;;;;11.35;9.90;;;31.60;50.00;;;;;;5080506;28;20016;-81
2021/06/22 12:54:11;;;;;;;12.80;9.40;;;31.70;48.70;;;;;;5080008;28;20064;-80